Decoded Metar for KASX (ASHLAND in WI, USA) (IATA:ASX) | Meteo·Mobile Aviation Weather
aviador You're here:

KASX Decoded Metar

ASHLAND in WI, USA
Report Time2018-12-15 16:53:00
UTC Time2018-12-15 17:55:21
Flight Rules vfr VFR
Wind200° at 04 kt
W.Decomp.*RWY 20: 4.0 kt HW 0.1 kt RCW
RWY 13: 1.2 kt HW 3.8 kt RCW
W.Rank200° ranks 4
Current wind is below 200° avg. (7.5)
Visibility9656 m
Phenomena:Haze
Clouds:N/A
Expected CloudBase > 2,400 ft AGL from Temp-Dew spread
CeilingNone
Temp03°C (ISA -10)
Dew Point-3°C (65% RH)
AAT-0.8°C
QNH1021 hPa
Density Alt-633 ft
Elevation823 ft
Report Wrong Elevation
Raw Report
KASX 151653Z AUTO 20004KT 6SM HZ CLR 03/M03 A3014 RMK AO2 SLP220
T00281028=

Extra information for KASX:More info

Metar Taf Metar & Taf Last 4 Metars F.Rules Stats Wind Profile Meteogram Temp Stats Airport Information Weather charts Add Link Nearby VenuesMetar ALERT Operation Metar Decoded Social comments

AIRNAV info for KASX